Date,TemperatureHighF,TemperatureAvgF,TemperatureLowF,DewpointHighF,DewpointAvgF,DewpointLowF,HumidityHigh,HumidityAvg,HumidityLow,PressureMaxIn,PressureMinIn,WindSpeedMaxMPH,WindSpeedAvgMPH,GustSpeedMaxMPH,PrecipitationSumIn
2013-1-1,47,32,21,-100,-100,-100,0,0,100,0.00,40.00,13,2,0,0.00
2013-1-2,55,35,19,-100,-100,-100,0,0,100,0.00,40.00,9,3,0,0.00
2013-1-3,46,34,22,-100,-100,-100,0,0,100,0.00,40.00,18,5,0,0.00
2013-1-4,51,32,17,-100,-100,-100,0,0,100,0.00,40.00,4,1,0,0.00
2013-1-5,55,32,16,-100,-100,-100,0,0,100,0.00,40.00,5,0,0,0.00
2013-1-6,57,36,23,-100,-100,-100,0,0,100,0.00,40.00,9,2,0,0.00
2013-1-7,60,39,23,-100,-100,-100,0,0,100,0.00,40.00,11,3,0,0.00
2013-1-8,63,40,22,-100,-100,-100,0,0,100,0.00,40.00,7,2,0,0.00
2013-1-9,67,45,27,-100,-100,-100,0,0,100,0.00,40.00,7,2,0,0.00
2013-1-10,56,42,31,-100,-100,-100,0,0,100,0.00,40.00,19,5,0,0.00
2013-1-11,41,32,20,-100,-100,-100,0,0,100,0.00,40.00,20,7,0,0.00
2013-1-12,39,25,13,-100,-100,-100,0,0,100,0.00,40.00,9,2,0,0.00
2013-1-13,40,24,9,-100,-100,-100,0,0,100,0.00,40.00,4,0,0,0.00
2013-1-14,41,24,9,-100,-100,-100,0,0,100,0.00,40.00,8,2,0,0.00
2013-1-15,48,25,8,-100,-100,-100,0,0,100,0.00,40.00,7,1,0,0.00
2013-1-16,57,37,17,-100,-100,-100,0,0,100,0.00,40.00,12,2,0,0.00
2013-1-17,64,41,22,-100,-100,-100,0,0,100,0.00,40.00,10,2,0,0.00
2013-1-18,65,40,22,-100,-100,-100,0,0,100,0.00,40.00,5,1,0,0.00
2013-1-19,67,44,22,-100,-100,-100,0,0,100,0.00,40.00,7,1,0,0.00
2013-1-20,69,43,20,-100,-100,-100,0,0,100,0.00,40.00,9,1,0,0.00
2013-1-21,69,46,22,-100,-100,-100,0,0,100,0.00,40.00,10,3,0,0.00
2013-1-22,73,45,22,-100,-100,-100,0,0,100,0.00,40.00,6,1,0,0.00
2013-1-23,69,45,27,-100,-100,-100,0,0,100,0.00,40.00,5,1,0,0.00
2013-1-24,54,48,42,-100,-100,-100,0,0,100,0.00,40.00,6,1,0,0.00
2013-1-25,63,52,42,-100,-100,-100,0,0,100,0.00,40.00,8,1,0,0.00
2013-1-27,57,54,52,-100,-100,-100,0,0,100,0.00,40.00,13,8,0,0.00
2013-1-29,47,40,33,-100,-100,-100,0,0,100,0.00,40.00,15,6,0,0.00
2013-1-30,54,45,32,-100,-100,-100,0,0,100,0.00,40.00,7,2,0,0.00
2013-1-31,64,49,26,-100,-100,-100,0,0,100,0.00,40.00,6,2,0,0.00
2013-2-1,70,45,26,-100,-100,-100,0,0,100,0.00,40.00,5,1,0,10.79
2013-2-2,70,49,30,-100,-100,-100,0,0,100,0.00,40.00,9,2,0,19.92
2013-2-3,60,50,39,-100,-100,-100,0,0,100,0.00,40.00,10,1,0,19.09
2013-2-4,71,48,32,-100,-100,-100,0,0,100,0.00,40.00,7,2,0,17.43
2013-2-5,69,48,28,-100,-100,-100,0,0,100,0.00,40.00,7,1,0,19.92
2013-2-6,67,48,34,-100,-100,-100,0,0,100,0.00,40.00,9,2,0,19.92
2013-2-7,66,48,31,-100,-100,-100,0,0,100,0.00,40.00,8,2,0,19.92
2013-2-8,56,45,35,-100,-100,-100,0,0,100,0.00,40.00,22,6,0,19.92
2013-2-9,39,35,30,-100,-100,-100,0,0,100,0.00,40.00,12,4,0,20.43
2013-2-10,41,33,26,-100,-100,-100,0,0,100,0.00,40.00,14,3,0,20.88
2013-2-11,49,35,27,-100,-100,-100,0,0,100,0.00,40.00,9,3,0,16.67
2013-2-12,52,34,18,-100,-100,-100,0,0,100,0.00,40.00,11,2,0,20.24
2013-2-13,61,39,21,-100,-100,-100,0,0,100,0.00,40.00,7,1,0,21.12
2013-2-14,63,42,24,-100,-100,-100,0,0,100,0.00,40.00,12,3,0,21.12
2013-2-15,67,48,29,-100,-100,-100,0,0,100,0.00,40.00,14,3,0,21.12
2013-2-16,74,47,25,-100,-100,-100,0,0,100,0.00,40.00,6,1,0,21.12
2013-2-17,68,46,27,-100,-100,-100,0,0,100,0.00,40.00,15,3,0,21.12
2013-2-18,67,45,26,-100,-100,-100,0,0,100,0.00,40.00,9,2,0,21.12
2013-2-19,61,45,29,-100,-100,-100,0,0,100,0.00,40.00,15,4,0,21.12
2013-2-20,46,36,31,-100,-100,-100,0,0,100,0.00,40.00,9,4,0,21.33
2013-2-21,38,33,30,-100,-100,-100,0,0,100,0.00,40.00,5,2,0,21.63
2013-2-22,53,37,21,-100,-100,-100,0,0,100,0.00,40.00,10,2,0,22.08
2013-2-23,56,40,23,-100,-100,-100,0,0,100,0.00,40.00,19,4,0,22.08
2013-2-24,48,39,28,-100,-100,-100,0,0,100,0.00,40.00,23,10,0,27.26
2013-2-25,60,40,23,-100,-100,-100,0,0,100,0.00,40.00,8,2,0,30.96
2013-2-26,57,40,21,-100,-100,-100,0,0,100,0.00,40.00,22,6,0,30.96
2013-2-27,59,41,21,-100,-100,-100,0,0,100,0.00,40.00,12,3,0,30.96
2013-2-28,66,44,25,-100,-100,-100,0,0,100,0.00,40.00,10,2,0,30.96
2013-3-1,73,50,27,-100,-100,-100,0,0,100,0.00,40.00,7,2,0,30.96
2013-3-2,81,53,33,-100,-100,-100,0,0,100,0.00,40.00,7,1,0,30.96
2013-3-3,65,51,35,-100,-100,-100,0,0,100,0.00,40.00,9,2,0,30.96
2013-3-4,70,54,40,-100,-100,-100,0,0,100,0.00,40.00,15,2,0,30.96
2013-3-5,69,51,33,-100,-100,-100,0,0,100,0.00,40.00,11,3,0,30.96
2013-3-6,71,52,34,-100,-100,-100,0,0,100,0.00,40.00,12,4,0,30.96
2013-3-7,69,51,32,-100,-100,-100,0,0,100,0.00,40.00,18,4,0,30.96
2013-3-8,50,41,33,-100,-100,-100,0,0,100,0.00,40.00,17,4,0,31.15
2013-3-9,39,36,33,-100,-100,-100,0,0,100,0.00,40.00,8,2,0,31.20
2013-3-10,65,45,30,-100,-100,-100,0,0,100,0.00,40.00,8,2,0,31.20
2013-3-11,69,49,29,-100,-100,-100,0,0,100,0.00,40.00,7,2,0,31.20
2013-3-12,81,55,32,-100,-100,-100,0,0,100,0.00,40.00,9,2,0,31.20
2013-3-13,82,58,36,-100,-100,-100,0,0,100,0.00,40.00,10,3,0,31.20
2013-3-14,84,63,42,-100,-100,-100,0,0,100,0.00,40.00,8,2,0,31.20
2013-3-15,83,63,43,-100,-100,-100,0,0,100,0.00,40.00,9,2,0,29.90
2013-3-16,86,59,45,-100,-100,-100,0,0,100,0.00,40.00,38,3,0,40.05
2013-3-17,94,59,37,-100,-100,-100,0,0,100,0.00,40.00,17,5,0,46.08
2013-3-18,95,58,36,-100,-100,-100,0,0,100,0.00,40.00,12,2,0,46.08
2013-3-19,97,62,48,-100,-100,-100,0,0,100,0.00,40.00,11,3,0,46.08
2013-3-20,82,59,42,-100,-100,-100,0,0,100,0.00,40.00,19,4,0,46.08
2013-3-21,90,60,42,-100,-100,-100,0,0,100,0.00,40.00,13,4,0,44.16
2013-3-22,101,59,34,-100,-100,-100,0,0,100,0.00,40.00,22,6,0,46.08
2013-3-23,74,49,28,-100,-100,-100,0,0,100,0.00,40.00,21,8,0,44.16
2013-3-24,90,53,28,-100,-100,-100,0,0,100,0.00,40.00,19,6,0,44.16
2013-3-25,96,56,31,-100,-100,-100,0,0,100,0.00,40.00,10,2,0,44.16
2013-3-26,91,56,36,-100,-100,-100,0,0,100,0.00,40.00,15,3,0,44.16
2013-3-27,88,58,36,-100,-100,-100,0,0,100,0.00,40.00,14,3,0,46.08
2013-3-28,93,60,35,-100,-100,-100,0,0,100,0.00,40.00,14,4,0,46.08
2013-3-29,101,63,40,-100,-100,-100,0,0,100,0.00,40.00,10,2,0,46.08
2013-3-30,87,59,44,-100,-100,-100,0,0,100,0.00,40.00,10,1,0,46.08
2013-3-31,100,62,40,-100,-100,-100,0,0,100,0.00,40.00,14,4,0,44.16
2013-4-1,93,60,40,-100,-100,-100,0,0,100,0.00,40.00,18,5,0,46.08
2013-4-2,89,58,34,-100,-100,-100,0,0,100,0.00,40.00,18,6,0,44.16
2013-4-3,101,61,38,-100,-100,-100,0,0,100,0.00,40.00,12,2,0,46.08
2013-4-4,96,63,41,-100,-100,-100,0,0,100,0.00,40.00,13,3,0,46.08
2013-4-5,94,64,44,-100,-100,-100,0,0,100,0.00,40.00,15,4,0,46.08
2013-4-6,101,64,42,-100,-100,-100,0,0,100,0.00,40.00,14,3,0,46.08
2013-4-7,103,62,39,-100,-100,-100,0,0,100,0.00,40.00,13,3,0,46.08
2013-4-8,70,54,44,-100,-100,-100,0,0,100,0.00,40.00,27,10,0,46.08
2013-4-9,62,50,42,-100,-100,-100,0,0,100,0.00,40.00,24,10,0,46.29
2013-4-10,86,54,32,-100,-100,-100,0,0,100,0.00,40.00,16,5,0,46.32
2013-4-11,101,58,33,-100,-100,-100,0,0,100,0.00,40.00,15,4,0,46.32
2013-4-12,96,62,37,-100,-100,-100,0,0,100,0.00,40.00,13,3,0,46.32
2013-4-13,100,65,43,-100,-100,-100,0,0,100,0.00,40.00,19,6,0,46.32
2013-4-14,85,66,44,-100,-100,-100,0,0,100,0.00,40.00,16,6,0,46.32
2013-4-15,80,63,47,-100,-100,-100,0,0,100,0.00,40.00,21,8,0,46.32
2013-4-16,75,60,50,-100,-100,-100,0,0,100,0.00,40.00,21,11,0,46.32
2013-4-17,68,51,37,-100,-100,-100,0,0,100,0.00,40.00,24,9,0,46.32
2013-4-18,86,50,27,-100,-100,-100,0,0,100,0.00,40.00,12,3,0,46.32
2013-4-19,85,55,29,-100,-100,-100,0,0,100,0.00,40.00,12,3,0,46.32
2013-4-20,96,63,35,-100,-100,-100,0,0,100,0.00,40.00,19,6,0,46.32
2013-4-21,97,66,39,-100,-100,-100,0,0,100,0.00,40.00,14,4,0,46.32
2013-4-22,96,68,42,-100,-100,-100,0,0,100,0.00,40.00,18,5,0,46.32
2013-4-23,91,65,44,-100,-100,-100,0,0,100,0.00,40.00,19,6,0,46.32
2013-4-24,96,62,35,-100,-100,-100,0,0,100,0.00,40.00,20,3,0,46.32
2013-4-25,84,62,42,-100,-100,-100,0,0,100,0.00,40.00,12,4,0,46.32
2013-4-26,97,66,40,-100,-100,-100,0,0,100,0.00,40.00,13,3,0,46.32
2013-4-27,97,68,40,-100,-100,-100,0,0,100,0.00,40.00,14,4,0,46.32
2013-4-28,101,70,42,-100,-100,-100,0,0,100,0.00,40.00,14,3,0,46.32
2013-4-29,101,73,46,-100,-100,-100,0,0,100,0.00,40.00,17,4,0,46.32
2013-4-30,96,74,51,-100,-100,-100,0,0,100,0.00,40.00,22,6,0,46.32
2013-5-1,97,70,47,-100,-100,-100,0,0,100,0.00,40.00,20,6,0,46.32
2013-5-2,82,64,51,-100,-100,-100,0,0,100,0.00,40.00,19,9,0,46.32
2013-5-3,93,65,38,-100,-100,-100,0,0,100,0.00,40.00,9,3,0,46.32
2013-5-4,96,66,42,-100,-100,-100,0,0,100,0.00,40.00,14,3,0,46.32
2013-5-5,81,67,52,-100,-100,-100,0,0,100,0.00,40.00,13,5,0,46.32
2013-5-6,74,64,50,-100,-100,-100,0,0,100,0.00,40.00,16,5,0,46.32
2013-5-7,76,60,46,-100,-100,-100,0,0,100,0.00,40.00,17,7,0,46.32
2013-5-8,85,59,37,-100,-100,-100,0,0,100,0.00,40.00,10,2,0,46.32
2013-5-9,90,62,42,-100,-100,-100,0,0,100,0.00,40.00,19,5,0,46.32
2013-5-10,100,62,43,-100,-100,-100,0,0,100,0.00,40.00,16,2,0,46.32
2013-5-11,97,70,51,-100,-100,-100,0,0,100,0.00,40.00,16,5,0,46.32
2013-5-12,98,72,49,-100,-100,-100,0,0,100,0.00,40.00,12,2,0,46.32
2013-5-13,105,76,50,-100,-100,-100,0,0,100,0.00,40.00,9,2,0,46.32
2013-5-14,100,75,53,-100,-100,-100,0,0,100,0.00,40.00,13,3,0,46.32
2013-5-15,95,74,54,-100,-100,-100,0,0,100,0.00,40.00,14,4,0,46.32
2013-5-16,91,67,48,-100,-100,-100,0,0,100,0.00,40.00,19,5,0,46.32
2013-5-17,84,68,48,-100,-100,-100,0,0,100,0.00,40.00,14,4,0,46.32
2013-5-18,92,69,48,-100,-100,-100,0,0,100,0.00,40.00,15,4,0,46.32
2013-5-19,102,71,47,-100,-100,-100,0,0,100,0.00,40.00,22,6,0,46.32
2013-5-20,86,70,53,-100,-100,-100,0,0,100,0.00,40.00,20,9,0,46.32
2013-5-21,96,71,49,-100,-100,-100,0,0,100,0.00,40.00,14,3,0,44.39
2013-5-22,94,74,48,-100,-100,-100,0,0,100,0.00,40.00,20,5,0,46.32
2013-5-23,94,74,52,-100,-100,-100,0,0,100,0.00,40.00,22,6,0,46.32
2013-5-24,92,72,47,-100,-100,-100,0,0,100,0.00,40.00,20,6,0,46.32
2013-5-25,90,72,45,-100,-100,-100,0,0,100,0.00,40.00,17,5,0,46.32
2013-5-26,92,70,43,-100,-100,-100,0,0,100,0.00,40.00,17,5,0,46.32
2013-5-27,84,69,48,-100,-100,-100,0,0,100,0.00,40.00,13,3,0,46.32
2013-5-28,91,69,48,-100,-100,-100,0,0,100,0.00,40.00,20,6,0,46.32
2013-5-29,94,73,50,-100,-100,-100,0,0,100,0.00,40.00,21,6,0,46.32
2013-5-30,100,74,53,-100,-100,-100,0,0,100,0.00,40.00,17,5,0,46.32
2013-5-31,112,79,56,-100,-100,-100,0,0,100,0.00,40.00,11,4,0,46.32
2013-6-1,100,82,65,-100,-100,-100,0,0,100,0.00,40.00,15,4,0,46.32
2013-6-2,101,82,59,-100,-100,-100,0,0,100,0.00,40.00,20,5,0,46.32
2013-6-3,101,80,60,-100,-100,-100,0,0,100,0.00,40.00,16,4,0,46.32
2013-6-4,100,79,53,-100,-100,-100,0,0,100,0.00,40.00,16,5,0,46.32
2013-6-5,101,81,54,-100,-100,-100,0,0,100,0.00,40.00,10,3,0,46.32
2013-6-6,106,84,61,-100,-100,-100,0,0,100,0.00,40.00,13,3,0,46.32
2013-6-7,106,83,62,-100,-100,-100,0,0,100,0.00,40.00,14,3,0,46.32
2013-6-8,111,85,63,-100,-100,-100,0,0,100,0.00,40.00,22,6,0,46.32
2013-6-9,107,85,62,-100,-100,-100,0,0,100,0.00,40.00,13,4,0,46.32
2013-6-10,102,82,59,-100,-100,-100,0,0,100,0.00,40.00,18,4,0,46.32
2013-6-11,107,81,56,-100,-100,-100,0,0,100,0.00,40.00,15,4,0,44.39
2013-6-12,103,86,61,-100,-100,-100,0,0,100,0.00,40.00,12,4,0,44.39
2013-6-13,99,86,64,-100,-100,-100,0,0,100,0.00,40.00,17,6,0,38.60
2013-6-14,101,86,60,-100,-100,-100,0,0,100,0.00,40.00,13,5,0,38.60
2013-6-15,96,84,62,-100,-100,-100,0,0,100,0.00,40.00,20,6,0,38.60
2013-6-16,99,83,62,-100,-100,-100,0,0,100,0.00,40.00,13,4,0,40.53
2013-6-17,98,83,57,-100,-100,-100,0,0,100,0.00,40.00,18,5,0,40.53
2013-6-18,100,83,55,-100,-100,-100,0,0,100,0.00,40.00,16,6,0,32.81
2013-6-19,96,84,53,-100,-100,-100,0,0,100,0.00,40.00,19,7,0,40.53
2013-6-20,94,80,52,-100,-100,-100,0,0,100,0.00,40.00,14,5,0,19.30
2013-6-22,94,89,66,-100,-100,-100,0,0,100,0.00,40.00,18,7,0,25.09
2013-6-23,95,81,54,-100,-100,-100,0,0,100,0.00,40.00,20,6,0,36.67
2013-6-24,92,80,62,-100,-100,-100,0,0,100,0.00,40.00,17,7,0,40.53
2013-6-25,96,84,56,-100,-100,-100,0,0,100,0.00,40.00,14,6,0,32.81
2013-6-26,97,85,56,-100,-100,-100,0,0,100,0.00,40.00,11,4,0,42.46
2013-6-27,105,86,60,-100,-100,-100,0,0,100,0.00,40.00,12,4,0,42.46
2013-6-28,114,88,67,-100,-100,-100,0,0,100,0.00,40.00,20,5,0,44.39
2013-6-29,108,89,69,-100,-100,-100,0,0,100,0.00,40.00,15,4,0,40.53
2013-6-30,109,86,71,-100,-100,-100,0,0,100,0.00,40.00,22,6,0,44.39
2013-7-1,111,89,75,-100,-100,-100,0,0,100,0.00,40.00,14,3,0,44.39
2013-7-2,102,81,68,-100,-100,-100,0,0,100,0.00,40.00,11,4,0,43.48
2013-7-3,99,78,65,-100,-100,-100,0,0,100,0.00,40.00,16,4,0,55.44
2013-7-4,104,86,65,-100,-100,-100,0,0,100,0.00,40.00,10,3,0,60.48
2013-7-5,96,84,74,-100,-100,-100,0,0,100,0.00,40.00,12,3,0,60.48
2013-7-6,101,78,69,-100,-100,-100,0,0,100,0.00,40.00,18,3,0,47.88
2013-7-7,102,81,64,-100,-100,-100,0,0,100,0.00,40.00,17,3,0,58.45
2013-7-8,105,84,65,-100,-100,-100,0,0,100,0.00,40.00,10,2,0,59.11
2013-7-9,105,88,68,-100,-100,-100,0,0,100,0.00,40.00,11,4,0,61.68
2013-7-10,101,83,75,-100,-100,-100,0,0,100,0.00,40.00,20,3,0,56.54
2013-7-11,93,80,71,-100,-100,-100,0,0,100,0.00,40.00,15,4,0,61.68
2013-7-12,91,72,65,-100,-100,-100,0,0,100,0.00,40.00,21,3,0,58.46
2013-7-13,94,77,62,-100,-100,-100,0,0,100,0.00,40.00,14,3,0,61.59
2013-7-14,99,82,68,-100,-100,-100,0,0,100,0.00,40.00,18,4,0,61.60
2013-7-15,97,78,68,-100,-100,-100,0,0,100,0.00,40.00,20,4,0,58.80
2013-7-16,92,76,67,-100,-100,-100,0,0,100,0.00,40.00,20,2,0,65.41
2013-7-17,94,74,64,-100,-100,-100,0,0,100,0.00,40.00,13,2,0,70.76
2013-7-18,94,79,66,-100,-100,-100,0,0,100,0.00,40.00,17,4,0,81.12
2013-7-19,99,78,68,-100,-100,-100,0,0,100,0.00,40.00,8,2,0,79.66
2013-7-20,96,75,66,-100,-100,-100,0,0,100,0.00,40.00,10,3,0,81.92
2013-7-21,90,74,68,-100,-100,-100,0,0,100,0.00,40.00,9,1,0,93.10
2013-7-22,92,77,67,-100,-100,-100,0,0,100,0.00,40.00,13,2,0,89.10
2013-7-23,94,78,66,-100,-100,-100,0,0,100,0.00,40.00,11,3,0,93.15
2013-7-24,101,80,66,-100,-100,-100,0,0,100,0.00,40.00,12,2,0,94.68
2013-7-25,96,80,72,-100,-100,-100,0,0,100,0.00,40.00,14,3,0,92.84
2013-7-26,90,75,68,-100,-100,-100,0,0,100,0.00,40.00,15,3,0,97.11
2013-7-27,90,75,66,-100,-100,-100,0,0,100,0.00,40.00,16,3,0,93.06
2013-7-28,90,73,63,-100,-100,-100,0,0,100,0.00,40.00,10,3,0,99.15
2013-7-29,93,79,62,-100,-100,-100,0,0,100,0.00,40.00,9,4,0,107.52
2013-7-30,96,79,64,-100,-100,-100,0,0,100,0.00,40.00,12,3,0,94.08
2013-7-31,101,83,66,-100,-100,-100,0,0,100,0.00,40.00,12,4,0,98.68
2013-8-1,95,79,69,-100,-100,-100,0,0,100,0.00,40.00,12,3,0,94.85
2013-8-2,98,82,69,-100,-100,-100,0,0,100,0.00,40.00,15,4,0,99.44
2013-8-3,97,84,67,-100,-100,-100,0,0,100,0.00,40.00,10,3,0,103.96
2013-8-4,100,83,71,-100,-100,-100,0,0,100,0.00,40.00,19,3,0,103.96
2013-8-5,97,80,65,-100,-100,-100,0,0,100,0.00,40.00,13,4,0,99.44
2013-8-6,80,73,67,-100,-100,-100,0,0,100,0.00,40.00,8,2,0,110.66
2013-8-7,93,76,64,-100,-100,-100,0,0,100,0.00,40.00,12,3,0,104.67
2013-8-8,94,78,60,-100,-100,-100,0,0,100,0.00,40.00,9,3,0,95.20
2013-8-9,97,77,58,-100,-100,-100,0,0,100,0.00,40.00,14,4,0,95.20
2013-8-10,95,79,62,-100,-100,-100,0,0,100,0.00,40.00,13,4,0,109.48
2013-8-11,96,80,64,-100,-100,-100,0,0,100,0.00,40.00,16,5,0,95.20
2013-8-12,98,79,64,-100,-100,-100,0,0,100,0.00,40.00,12,2,0,99.96
2013-8-13,98,80,62,-100,-100,-100,0,0,100,0.00,40.00,14,3,0,99.96
2013-8-14,100,78,62,-100,-100,-100,0,0,100,0.00,40.00,10,2,0,95.20
2013-8-15,99,73,74,-100,-100,-100,0,0,100,0.00,40.00,9,3,0,95.20
2013-8-16,103,81,68,-100,-100,-100,0,0,100,0.00,40.00,10,3,0,99.96
2013-8-17,100,78,69,-100,-100,-100,0,0,100,0.00,40.00,20,4,0,104.99
2013-8-20,101,80,60,-100,-100,-100,0,0,100,0.00,40.00,10,2,0,100.80
2013-8-21,86,80,71,-100,-100,-100,0,0,100,0.00,40.00,15,5,0,115.20
2013-8-22,99,80,68,-100,-100,-100,0,0,100,0.00,40.00,8,2,0,105.97
2013-8-23,94,78,63,-100,-100,-100,0,0,100,0.00,40.00,14,4,0,107.80
2013-8-24,85,72,67,-100,-100,-100,0,0,100,0.00,40.00,12,3,0,53.99
2013-8-25,76,70,65,-100,-100,-100,0,0,100,0.00,40.00,7,1,0,0.00
2013-8-26,87,73,65,-100,-100,-100,0,0,100,0.00,40.00,14,1,0,0.00
2013-8-27,93,71,67,-100,-100,-100,0,0,100,0.00,40.00,8,2,0,0.00
2013-8-28,94,84,72,-100,-100,-100,0,0,100,0.00,40.00,13,4,0,0.00
2013-9-5,99,76,63,-100,-100,-100,0,0,100,0.00,40.00,9,2,0,0.00
2013-9-6,101,81,67,-100,-100,-100,0,0,100,0.00,40.00,9,4,0,0.00
2013-9-7,92,75,67,-100,-100,-100,0,0,100,0.00,40.00,10,2,0,0.00
2013-9-8,78,70,66,-100,-100,-100,0,0,100,0.00,40.00,6,1,0,0.00
2013-9-9,70,66,61,-100,-100,-100,0,0,100,0.00,40.00,4,1,0,0.00
2013-9-10,72,64,61,-100,-100,-100,0,0,100,0.00,40.00,9,1,0,0.00
2013-9-11,82,67,58,-100,-100,-100,0,0,100,0.00,40.00,13,3,0,0.00
2013-9-12,89,67,54,-100,-100,-100,0,0,100,0.00,40.00,7,2,0,0.00
2013-9-13,90,69,57,-100,-100,-100,0,0,100,0.00,40.00,9,2,0,0.00
2013-9-14,91,72,60,-100,-100,-100,0,0,100,0.00,40.00,13,3,0,0.00
2013-9-15,93,73,57,-100,-100,-100,0,0,100,0.00,40.00,8,3,0,0.00
2013-9-16,94,73,60,-100,-100,-100,0,0,100,0.00,40.00,9,2,0,0.00
2013-9-17,91,76,62,-100,-100,-100,0,0,100,0.00,40.00,14,4,0,0.00
2013-9-18,68,63,59,-100,-100,-100,0,0,100,0.00,40.00,3,0,0,0.00
2013-9-19,91,67,53,-100,-100,-100,0,0,100,0.00,40.00,8,2,0,0.00
2013-9-20,95,69,52,-100,-100,-100,0,0,100,0.00,40.00,8,2,0,0.00
2013-9-21,90,72,59,-100,-100,-100,0,0,100,0.00,40.00,13,3,0,0.00
2013-9-22,82,69,54,-100,-100,-100,0,0,100,0.00,40.00,20,7,0,0.00
2013-9-23,89,62,44,-100,-100,-100,0,0,100,0.00,40.00,10,2,0,0.00
2013-9-24,87,67,47,-100,-100,-100,0,0,100,0.00,40.00,10,2,0,0.00
2013-9-25,86,66,47,-100,-100,-100,0,0,100,0.00,40.00,17,6,0,0.00
2013-9-26,82,70,58,-100,-100,-100,0,0,100,0.00,40.00,17,10,0,0.00
2013-9-27,79,64,51,-100,-100,-100,0,0,100,0.00,40.00,12,7,0,0.00
2013-9-28,84,62,40,-100,-100,-100,0,0,100,0.00,40.00,5,2,0,0.00
2013-10-12,78,53,35,-100,-100,-100,0,0,100,0.00,40.00,10,2,0,0.00
2013-10-13,74,54,37,-100,-100,-100,0,0,100,0.00,40.00,17,4,0,0.00
2013-10-14,74,54,37,-100,-100,-100,0,0,100,0.00,40.00,7,2,0,0.00
2013-10-15,78,57,34,-100,-100,-100,0,0,100,0.00,40.00,11,3,0,0.00
2013-10-16,76,55,39,-100,-100,-100,0,0,100,0.00,40.00,6,3,0,0.00
2013-10-17,76,51,32,-100,-100,-100,0,0,100,0.00,40.00,7,2,0,0.00
2013-10-18,78,58,35,-100,-100,-100,0,0,100,0.00,40.00,8,2,0,0.00
2013-10-24,84,62,48,-100,-100,-100,0,0,100,0.00,40.00,11,2,0,0.00
2013-10-25,81,63,39,-100,-100,-100,0,0,100,0.00,40.00,11,3,0,0.00
2013-10-26,83,60,42,-100,-100,-100,0,0,100,0.00,40.00,11,2,0,0.00
2013-10-27,80,61,42,-100,-100,-100,0,0,100,0.00,40.00,10,3,0,0.00
2013-10-28,73,59,53,-100,-100,-100,0,0,100,0.00,40.00,22,7,0,0.00
2013-10-29,63,53,41,-100,-100,-100,0,0,100,0.00,40.00,14,4,0,0.00
2013-10-30,63,46,34,-100,-100,-100,0,0,100,0.00,40.00,11,3,0,0.00
2013-11-7,76,63,33,-100,-100,-100,0,0,100,0.00,40.00,8,4,0,0.00
2013-11-8,78,50,32,-100,-100,-100,0,0,100,0.00,40.00,7,1,0,0.00
2013-11-9,78,48,33,-100,-100,-100,0,0,100,0.00,40.00,6,1,0,0.00
2013-11-10,78,54,35,-100,-100,-100,0,0,100,0.00,40.00,4,1,0,0.00
2013-11-11,84,64,37,-100,-100,-100,0,0,100,0.00,40.00,12,5,0,0.00
2013-11-12,85,67,46,-100,-100,-100,0,0,100,0.00,40.00,9,3,0,0.00
2013-11-13,78,54,41,-100,-100,-100,0,0,100,0.00,40.00,4,0,0,0.00
2013-11-14,80,51,38,-100,-100,-100,0,0,100,0.00,40.00,4,1,0,0.00
2013-11-15,68,53,42,-100,-100,-100,0,0,100,0.00,40.00,14,5,0,0.00
2013-11-16,64,50,41,-100,-100,-100,0,0,100,0.00,40.00,11,3,0,0.00
2013-11-17,65,48,37,-100,-100,-100,0,0,100,0.00,40.00,5,1,0,0.00
2013-11-18,70,47,33,-100,-100,-100,0,0,100,0.00,40.00,6,1,0,0.00
2013-11-19,69,50,37,-100,-100,-100,0,0,100,0.00,40.00,10,2,0,0.00
2013-11-20,57,51,42,-100,-100,-100,0,0,100,0.00,40.00,9,2,0,0.00
2013-11-21,58,51,46,-100,-100,-100,0,0,100,0.00,40.00,7,2,0,0.00
2013-12-7,45,30,16,-100,-100,-100,0,0,100,0.00,40.00,17,6,0,0.00
2013-12-8,49,37,28,-100,-100,-100,0,0,100,0.00,40.00,17,4,0,0.00
2013-12-9,44,27,17,-100,-100,-100,0,0,100,0.00,40.00,12,4,0,0.00
2013-12-10,53,28,12,-100,-100,-100,0,0,100,0.00,40.00,4,1,0,0.00
2013-12-11,59,39,16,-100,-100,-100,0,0,100,0.00,40.00,8,2,0,0.00
2013-12-12,63,42,25,-100,-100,-100,0,0,100,0.00,40.00,8,2,0,0.00
2013-12-13,58,40,28,-100,-100,-100,0,0,100,0.00,40.00,8,2,0,0.00
2013-12-17,71,54,34,-100,-100,-100,0,0,100,0.00,40.00,5,1,0,0.00
2013-12-18,65,47,30,-100,-100,-100,0,0,100,0.00,40.00,5,2,0,0.00
2013-12-19,61,45,35,-100,-100,-100,0,0,100,0.00,40.00,11,4,0,0.00
2013-12-20,48,39,32,-100,-100,-100,0,0,100,0.00,40.00,6,2,0,0.00
2013-12-21,48,35,28,-100,-100,-100,0,0,100,0.00,40.00,7,1,0,0.00
2013-12-22,53,36,28,-100,-100,-100,0,0,100,0.00,40.00,4,1,0,0.00
2013-12-23,30,27,26,-100,-100,-100,0,0,100,0.00,40.00,2,0,0,0.00